TimeCST,TemperatureF,Dew PointF,Humidity,Sea Level PressureIn,VisibilityMPH,Wind Direction,Wind SpeedMPH,Gust SpeedMPH,PrecipitationIn,Events,Conditions,WindDirDegrees,DateUTC
12:15 AM,29.1,25.2,85,30.16,10.0,Calm,Calm,-,N/A,,Clear,0,2011-11-08 06:15:00
12:35 AM,28.9,24.8,84,30.16,10.0,Calm,Calm,-,N/A,,Clear,0,2011-11-08 06:35:00
12:55 AM,28.9,25.2,86,30.16,10.0,Calm,Calm,-,N/A,,Clear,0,2011-11-08 06:55:00
1:15 AM,28.4,25.2,88,30.17,10.0,Calm,Calm,-,N/A,,Clear,0,2011-11-08 07:15:00
1:35 AM,28.6,25.5,88,30.18,10.0,Calm,Calm,-,N/A,,Clear,0,2011-11-08 07:35:00
1:55 AM,29.1,25.3,86,30.18,10.0,Calm,Calm,-,N/A,,Clear,0,2011-11-08 07:55:00
2:15 AM,29.3,25.5,86,30.18,10.0,Calm,Calm,-,N/A,,Clear,0,2011-11-08 08:15:00
2:35 AM,29.1,25.9,88,30.18,10.0,Calm,Calm,-,N/A,,Clear,0,2011-11-08 08:35:00
3:15 AM,29.7,26.1,86,30.17,10.0,Calm,Calm,-,N/A,,Scattered Clouds,0,2011-11-08 09:15:00
3:35 AM,29.8,26.2,86,30.18,10.0,Calm,Calm,-,N/A,,Scattered Clouds,0,2011-11-08 09:35:00
3:55 AM,30.0,26.4,86,30.17,10.0,Calm,Calm,-,N/A,,Mostly Cloudy,0,2011-11-08 09:55:00
4:15 AM,30.4,26.4,85,30.17,10.0,Calm,Calm,-,N/A,,Scattered Clouds,0,2011-11-08 10:15:00
4:35 AM,30.0,26.8,88,30.17,10.0,Calm,Calm,-,N/A,,Scattered Clouds,0,2011-11-08 10:35:00
4:55 AM,30.6,27.7,89,30.17,10.0,Calm,Calm,-,N/A,,Mostly Cloudy,0,2011-11-08 10:55:00
5:15 AM,30.6,28.2,91,30.16,10.0,Calm,Calm,-,N/A,,Mostly Cloudy,0,2011-11-08 11:15:00
5:35 AM,30.9,28.0,89,30.17,10.0,Calm,Calm,-,N/A,,Scattered Clouds,0,2011-11-08 11:35:00
5:55 AM,30.6,27.9,90,30.16,10.0,Calm,Calm,-,N/A,,Mostly Cloudy,0,2011-11-08 11:55:00
6:15 AM,30.6,28.9,94,30.16,10.0,Calm,Calm,-,N/A,,Mostly Cloudy,0,2011-11-08 12:15:00
6:35 AM,31.5,27.5,85,30.16,10.0,North,3.5,-,N/A,,Mostly Cloudy,360,2011-11-08 12:35:00
6:55 AM,31.1,27.5,87,30.16,10.0,Calm,Calm,-,N/A,,Overcast,0,2011-11-08 12:55:00
7:15 AM,31.1,27.3,86,30.17,10.0,Calm,Calm,-,N/A,,Scattered Clouds,0,2011-11-08 13:15:00
7:35 AM,31.5,27.3,85,30.17,10.0,Calm,Calm,-,N/A,,Scattered Clouds,0,2011-11-08 13:35:00
8:15 AM,32.4,28.8,87,30.16,10.0,Calm,Calm,-,N/A,,Scattered Clouds,0,2011-11-08 14:15:00
8:35 AM,34.0,28.8,81,30.18,10.0,ENE,3.5,-,N/A,,Mostly Cloudy,60,2011-11-08 14:35:00
8:55 AM,34.7,28.8,79,30.17,10.0,ENE,5.8,-,N/A,,Scattered Clouds,70,2011-11-08 14:55:00
9:15 AM,35.1,28.6,77,30.17,10.0,ENE,4.6,-,N/A,,Clear,70,2011-11-08 15:15:00
9:35 AM,35.8,28.8,76,30.17,10.0,ENE,5.8,-,N/A,,Clear,60,2011-11-08 15:35:00
9:55 AM,36.5,28.9,74,30.16,10.0,NE,5.8,-,N/A,,Clear,50,2011-11-08 15:55:00
10:15 AM,36.9,28.6,72,30.15,10.0,ENE,5.8,-,N/A,,Mostly Cloudy,70,2011-11-08 16:15:00
10:35 AM,37.2,28.8,71,30.15,10.0,NE,6.9,-,N/A,,Scattered Clouds,40,2011-11-08 16:35:00
10:55 AM,37.9,28.6,69,30.15,10.0,NE,5.8,-,N/A,,Clear,50,2011-11-08 16:55:00
11:15 AM,38.5,28.4,67,30.15,10.0,NE,8.1,-,N/A,,Clear,40,2011-11-08 17:15:00
11:35 AM,39.2,28.6,66,30.15,10.0,NNE,3.5,-,N/A,,Clear,20,2011-11-08 17:35:00
11:55 AM,39.4,28.8,66,30.14,10.0,NE,4.6,-,N/A,,Clear,50,2011-11-08 17:55:00
12:15 PM,39.7,28.4,64,30.14,10.0,ENE,3.5,-,N/A,,Clear,70,2011-11-08 18:15:00
12:35 PM,40.3,28.0,62,30.13,10.0,Calm,Calm,-,N/A,,Clear,0,2011-11-08 18:35:00
12:55 PM,40.6,28.4,62,30.13,10.0,NE,6.9,-,N/A,,Clear,50,2011-11-08 18:55:00
1:15 PM,41.0,28.0,60,30.12,10.0,North,5.8,-,N/A,,Clear,360,2011-11-08 19:15:00
1:35 PM,41.2,27.9,59,30.11,10.0,NNE,6.9,-,N/A,,Clear,30,2011-11-08 19:35:00
2:15 PM,41.2,27.9,59,30.11,10.0,North,4.6,-,N/A,,Clear,10,2011-11-08 20:15:00
2:35 PM,41.0,27.7,59,30.12,10.0,NE,5.8,-,N/A,,Clear,40,2011-11-08 20:35:00
2:55 PM,40.8,27.3,59,30.12,10.0,NNE,5.8,-,N/A,,Clear,20,2011-11-08 20:55:00
3:15 PM,40.5,27.0,59,30.12,10.0,NNE,5.8,-,N/A,,Clear,20,2011-11-08 21:15:00
3:35 PM,40.1,27.0,59,30.12,10.0,NNE,5.8,-,N/A,,Scattered Clouds,20,2011-11-08 21:35:00
3:55 PM,39.7,27.3,61,30.12,10.0,NNE,4.6,-,N/A,,Clear,30,2011-11-08 21:55:00
4:15 PM,39.2,27.5,63,30.12,10.0,NE,5.8,-,N/A,,Clear,40,2011-11-08 22:15:00
4:35 PM,38.7,27.5,64,30.12,10.0,NNE,5.8,-,N/A,,Clear,30,2011-11-08 22:35:00
4:55 PM,38.5,27.3,64,30.12,10.0,North,5.8,-,N/A,,Clear,10,2011-11-08 22:55:00
5:15 PM,38.3,27.0,64,30.13,10.0,NNE,6.9,-,N/A,,Clear,20,2011-11-08 23:15:00
5:35 PM,37.8,26.8,65,30.12,10.0,NNE,6.9,-,N/A,,Clear,20,2011-11-08 23:35:00
5:55 PM,37.4,26.6,65,30.12,10.0,NNE,5.8,-,N/A,,Scattered Clouds,30,2011-11-08 23:55:00
6:15 PM,36.1,27.0,69,30.13,10.0,NNE,4.6,-,N/A,,Scattered Clouds,30,2011-11-09 00:15:00
6:35 PM,35.8,26.8,70,30.13,10.0,NNE,3.5,-,N/A,,Mostly Cloudy,30,2011-11-09 00:35:00
6:55 PM,35.2,26.8,71,30.12,7.0,NE,3.5,-,N/A,,Overcast,50,2011-11-09 00:55:00
7:15 PM,34.7,27.0,73,30.12,10.0,NNE,3.5,-,N/A,,Scattered Clouds,30,2011-11-09 01:15:00
7:35 PM,33.3,26.6,77,30.12,7.0,NNE,3.5,-,N/A,,Scattered Clouds,30,2011-11-09 01:35:00
7:55 PM,31.8,26.2,80,30.12,10.0,North,4.6,-,N/A,,Clear,360,2011-11-09 01:55:00
8:15 PM,30.9,25.9,82,30.13,10.0,North,3.5,-,N/A,,Clear,10,2011-11-09 02:15:00
8:35 PM,30.9,25.9,82,30.13,7.0,NE,3.5,-,N/A,,Scattered Clouds,40,2011-11-09 02:35:00
8:55 PM,31.3,26.4,82,30.13,10.0,Calm,Calm,-,N/A,,Overcast,0,2011-11-09 02:55:00
9:15 PM,31.8,26.6,81,30.13,10.0,NNE,4.6,-,N/A,,Overcast,30,2011-11-09 03:15:00
9:35 PM,30.6,26.4,85,30.13,10.0,Calm,Calm,-,N/A,,Mostly Cloudy,0,2011-11-09 03:35:00
9:55 PM,30.7,26.6,85,30.11,10.0,NNE,3.5,-,N/A,,Overcast,20,2011-11-09 03:55:00
10:15 PM,31.3,27.3,85,30.11,10.0,Calm,Calm,-,N/A,,Overcast,0,2011-11-09 04:15:00
10:35 PM,31.8,27.5,84,30.11,10.0,NNE,3.5,-,N/A,,Overcast,20,2011-11-09 04:35:00
10:55 PM,31.5,27.5,85,30.11,10.0,NE,3.5,-,N/A,,Overcast,40,2011-11-09 04:55:00
11:15 PM,32.0,27.9,85,30.10,10.0,NNE,4.6,-,N/A,,Mostly Cloudy,30,2011-11-09 05:15:00
11:35 PM,32.4,28.2,85,30.10,10.0,NNE,4.6,-,N/A,,Overcast,20,2011-11-09 05:35:00
11:55 PM,32.5,28.2,84,30.10,10.0,NNE,3.5,-,N/A,,Overcast,20,2011-11-09 05:55:00